createdAt,value
2018-12-23T00:00:51.232Z,86.39
2018-12-23T00:01:51.223Z,86.77
2018-12-23T00:02:51.207Z,86.58
2018-12-23T00:03:51.292Z,86.68
2018-12-23T00:04:51.178Z,86.77
2018-12-23T00:05:51.165Z,86.39
2018-12-23T00:06:51.150Z,86.39
2018-12-23T00:07:51.138Z,86.3
2018-12-23T00:08:51.125Z,86.49
2018-12-23T00:09:51.115Z,86.3
2018-12-23T00:10:51.099Z,86.68
2018-12-23T00:11:51.087Z,86.68
2018-12-23T00:12:51.076Z,86.3
2018-12-23T00:13:51.063Z,86.3
2018-12-23T00:14:51.050Z,86.39
2018-12-23T00:15:51.035Z,86.68
2018-12-23T00:16:51.024Z,86.68
2018-12-23T00:17:51.011Z,86.39
2018-12-23T00:18:50.998Z,86.49
2018-12-23T00:19:51.032Z,86.68
2018-12-23T00:20:50.972Z,86.68
2018-12-23T00:21:50.960Z,86.39
2018-12-23T00:22:50.947Z,86.49
2018-12-23T00:23:50.935Z,86.72
2018-12-23T00:24:50.922Z,86.49
2018-12-23T00:25:50.908Z,86.53
2018-12-23T00:26:50.895Z,86.96
2018-12-23T00:27:50.883Z,86.49
2018-12-23T00:28:50.869Z,86.43
2018-12-23T00:29:50.859Z,86.43
2018-12-23T00:30:50.844Z,87.01
2018-12-23T00:31:51.085Z,86.43
2018-12-23T00:32:50.818Z,87.1
2018-12-23T00:33:50.806Z,87.1
2018-12-23T00:34:50.797Z,86.34
2018-12-23T00:35:50.781Z,86.53
2018-12-23T00:36:50.768Z,86.53
2018-12-23T00:37:50.756Z,86.72
2018-12-23T00:38:50.742Z,86.58
2018-12-23T00:39:50.730Z,86.58
2018-12-23T00:40:50.717Z,86.53
2018-12-23T00:41:50.707Z,86.43
2018-12-23T00:42:50.693Z,86.43
2018-12-23T00:43:50.678Z,86.3
2018-12-23T00:44:50.665Z,86.2
2018-12-23T00:45:50.656Z,86.39
2018-12-23T00:46:50.641Z,86.3
2018-12-23T00:47:50.627Z,86.39
2018-12-23T00:48:50.615Z,86.58
2018-12-23T00:49:50.601Z,86.72
2018-12-23T00:50:50.598Z,86.68
2018-12-23T00:51:50.578Z,86.49
2018-12-23T00:52:50.564Z,86.58
2018-12-23T00:53:50.557Z,86.77
2018-12-23T00:54:50.637Z,86.72
2018-12-23T00:55:50.530Z,87.05
2018-12-23T00:56:50.513Z,86.77
2018-12-23T00:57:50.504Z,86.34
2018-12-23T00:58:50.489Z,86.49
2018-12-23T00:59:50.592Z,86.39
2018-12-23T01:00:50.463Z,86.2
2018-12-23T01:01:50.452Z,86.43
2018-12-23T01:02:50.689Z,86.53
2018-12-23T01:03:50.424Z,86.82
2018-12-23T01:04:50.410Z,86.72
2018-12-23T01:05:50.399Z,86.53
2018-12-23T01:06:50.391Z,86.63
2018-12-23T01:07:50.372Z,86.63
2018-12-23T01:08:50.361Z,86.58
2018-12-23T01:09:50.347Z,86.72
2018-12-23T01:10:50.346Z,86.72
2018-12-23T01:11:50.326Z,86.72
2018-12-23T01:12:50.311Z,86.77
2018-12-23T01:13:50.300Z,86.82
2018-12-23T01:14:50.286Z,86.77
2018-12-23T01:15:50.273Z,86.72
2018-12-23T01:16:50.261Z,86.72
2018-12-23T01:17:50.250Z,87.15
2018-12-23T01:18:50.237Z,86.96
2018-12-23T01:19:50.225Z,86.96
2018-12-23T01:20:50.211Z,86.58
2018-12-23T01:21:50.203Z,87.15
2018-12-23T01:22:50.190Z,86.68
2018-12-23T01:23:50.179Z,86.72
2018-12-23T01:24:50.159Z,86.49
2018-12-23T01:25:50.150Z,86.77
2018-12-23T01:26:50.137Z,87.15
2018-12-23T01:27:50.120Z,86.77
2018-12-23T01:28:50.109Z,86.77
2018-12-23T01:29:50.098Z,86.49
2018-12-23T01:30:50.084Z,86.68
2018-12-23T01:31:50.072Z,86.77
2018-12-23T01:32:50.058Z,86.39
2018-12-23T01:33:50.044Z,86.58
2018-12-23T01:34:50.033Z,86.58
2018-12-23T01:35:50.020Z,86.53
2018-12-23T01:36:50.009Z,86.53
2018-12-23T01:37:49.997Z,87.05
2018-12-23T01:38:49.984Z,86.91
2018-12-23T01:39:49.970Z,87.1
2018-12-23T01:40:49.957Z,86.53
2018-12-23T01:41:49.946Z,86.77
2018-12-23T01:42:49.934Z,86.72
2018-12-23T01:43:49.918Z,86.72
2018-12-23T01:44:49.912Z,86.63
2018-12-23T01:45:49.894Z,86.72
2018-12-23T01:46:49.882Z,86.63
2018-12-23T01:47:49.968Z,86.34
2018-12-23T01:48:49.856Z,86.82
2018-12-23T01:49:49.842Z,87.19
2018-12-23T01:50:49.833Z,87.05
2018-12-23T01:51:49.820Z,86.77
2018-12-23T01:52:49.836Z,86.96
2018-12-23T01:53:49.792Z,87.24
2018-12-23T01:54:49.782Z,87.24
2018-12-23T01:55:49.765Z,87.62
2018-12-23T01:56:49.754Z,88.48
2018-12-23T01:57:49.739Z,88.76
2018-12-23T01:58:49.729Z,89.14
2018-12-23T01:59:49.715Z,89.05
2018-12-23T02:00:49.709Z,89.24
2018-12-23T02:01:49.689Z,88.57
2018-12-23T02:02:49.677Z,88.01
2018-12-23T02:03:49.663Z,87.72
2018-12-23T02:04:49.651Z,87.62
2018-12-23T02:05:49.637Z,87.82
2018-12-23T02:06:49.629Z,88.1
2018-12-23T02:07:49.612Z,87.15
2018-12-23T02:08:49.599Z,86.96
2018-12-23T02:09:49.591Z,86.87
2018-12-23T02:10:49.574Z,87.24
2018-12-23T02:11:49.560Z,87.72
2018-12-23T02:12:49.551Z,87.62
2018-12-23T02:13:49.533Z,88.01
2018-12-23T02:14:49.520Z,87.53
2018-12-23T02:15:49.509Z,87.62
2018-12-23T02:16:49.499Z,87.62
2018-12-23T02:17:49.484Z,87.24
2018-12-23T02:18:49.468Z,87.34
2018-12-23T02:19:49.456Z,87.24
2018-12-23T02:20:49.444Z,87.15
2018-12-23T02:21:49.431Z,87.05
2018-12-23T02:22:49.419Z,87.24
2018-12-23T02:23:49.404Z,86.96
2018-12-23T02:24:49.390Z,87.05
2018-12-23T02:25:49.378Z,87.24
2018-12-23T02:26:49.366Z,86.87
2018-12-23T02:27:49.354Z,86.96
2018-12-23T02:28:49.339Z,86.68
2018-12-23T02:29:49.326Z,86.87
2018-12-23T02:30:49.325Z,86.96
2018-12-23T02:31:49.304Z,86.96
2018-12-23T02:32:49.287Z,87.24
2018-12-23T02:33:49.280Z,86.87
2018-12-23T02:34:49.263Z,86.96
2018-12-23T02:35:58.067Z,87.24
2018-12-23T02:36:49.243Z,86.77
2018-12-23T02:37:49.228Z,86.77
2018-12-23T02:38:49.217Z,86.87
2018-12-23T02:39:49.197Z,86.68
2018-12-23T02:40:49.189Z,87.15
2018-12-23T02:41:49.174Z,86.68
2018-12-23T02:42:49.161Z,86.2
2018-12-23T02:43:49.152Z,86.39
2018-12-23T02:44:49.134Z,86.49
2018-12-23T02:45:49.123Z,86.68
2018-12-23T02:46:49.110Z,86.49
2018-12-23T02:47:49.101Z,86.58
2018-12-23T02:48:49.080Z,86.63
2018-12-23T02:49:49.072Z,86.77
2018-12-23T02:50:49.057Z,86.39
2018-12-23T02:51:49.050Z,86.72
2018-12-23T02:52:49.030Z,86.58
2018-12-23T02:53:49.020Z,86.63
2018-12-23T02:54:49.016Z,86.63
2018-12-23T02:55:48.995Z,86.63
2018-12-23T02:56:48.982Z,86.72
2018-12-23T02:57:48.970Z,86.43
2018-12-23T02:58:48.973Z,86.34
2018-12-23T02:59:48.947Z,86.43
2018-12-23T03:00:48.955Z,86.53
2018-12-23T03:01:48.918Z,86.82
2018-12-23T03:02:48.903Z,86.82
2018-12-23T03:03:48.892Z,86.43
2018-12-23T03:04:48.882Z,86.72
2018-12-23T03:05:48.872Z,86.63
2018-12-23T03:06:48.855Z,86.43
2018-12-23T03:07:48.842Z,86.43
2018-12-23T03:08:48.832Z,86.43
2018-12-23T03:09:48.816Z,86.72
2018-12-23T03:10:48.804Z,87.01
2018-12-23T03:11:48.791Z,87.01
2018-12-23T03:12:48.781Z,87.01
2018-12-23T03:13:48.770Z,87.1
2018-12-23T03:14:48.756Z,87.01
2018-12-23T03:15:48.746Z,86.39
2018-12-23T03:16:48.726Z,86.53
2018-12-23T03:17:48.884Z,86.82
2018-12-23T03:18:48.701Z,86.24
2018-12-23T03:19:48.693Z,86.34
2018-12-23T03:20:48.677Z,86.53
2018-12-23T03:21:48.666Z,86.53
2018-12-23T03:22:48.652Z,86.72
2018-12-23T03:23:48.641Z,86.63
2018-12-23T03:24:48.626Z,86.63
2018-12-23T03:25:48.614Z,86.53
2018-12-23T03:26:48.600Z,86.72
2018-12-23T03:27:48.709Z,86.34
2018-12-23T03:28:48.576Z,86.53
2018-12-23T03:29:48.565Z,86.72
2018-12-23T03:30:48.597Z,86.43
2018-12-23T03:31:48.566Z,86.82
2018-12-23T03:32:48.533Z,86.43
2018-12-23T03:33:48.524Z,86.72
2018-12-23T03:34:48.501Z,86.72
2018-12-23T03:35:48.490Z,86.53
2018-12-23T03:36:48.487Z,86.63
2018-12-23T03:37:48.469Z,86.53
2018-12-23T03:38:48.449Z,86.82
2018-12-23T03:39:48.436Z,86.72
2018-12-23T03:40:48.429Z,86.63
2018-12-23T03:41:48.412Z,86.72
2018-12-23T03:42:48.400Z,86.82
2018-12-23T03:43:48.388Z,86.53
2018-12-23T03:44:48.375Z,86.91
2018-12-23T03:45:48.362Z,86.91
2018-12-23T03:46:48.350Z,87.01
2018-12-23T03:47:48.341Z,86.53
2018-12-23T03:48:48.324Z,87.1
2018-12-23T03:49:48.312Z,87.29
2018-12-23T03:50:48.299Z,87.38
2018-12-23T03:51:48.287Z,87.1
2018-12-23T03:52:48.272Z,87.48
2018-12-23T03:53:48.261Z,87.43
2018-12-23T03:54:48.248Z,88.01
2018-12-23T03:55:48.235Z,88.67
2018-12-23T03:56:48.229Z,88.76
2018-12-23T03:57:48.214Z,89.05
2018-12-23T03:58:48.207Z,88.86
2018-12-23T03:59:48.184Z,89.43
2018-12-23T04:00:48.173Z,89.62
2018-12-23T04:01:48.159Z,90
2018-12-23T04:02:48.149Z,89.9
2018-12-23T04:03:48.134Z,90
2018-12-23T04:04:48.141Z,90.38
2018-12-23T04:05:48.107Z,90.09
2018-12-23T04:06:48.097Z,90.47
2018-12-23T04:07:48.085Z,90.19
2018-12-23T04:08:48.070Z,90.47
2018-12-23T04:09:48.316Z,90.14
2018-12-23T04:10:48.044Z,90.24
2018-12-23T04:11:48.032Z,90.33
2018-12-23T04:12:48.018Z,90.14
2018-12-23T04:13:48.004Z,90.05
2018-12-23T04:14:47.993Z,89.58
2018-12-23T04:15:47.986Z,89.58
2018-12-23T04:16:48.116Z,88.81
2018-12-23T04:17:47.951Z,88.62
2018-12-23T04:18:47.940Z,88.15
2018-12-23T04:19:47.931Z,87.68
2018-12-23T04:20:47.915Z,87.39
2018-12-23T04:21:47.905Z,87.3
2018-12-23T04:22:47.893Z,86.82
2018-12-23T04:23:47.873Z,86.91
2018-12-23T04:24:47.864Z,86.82
2018-12-23T04:25:47.852Z,87.39
2018-12-23T04:26:47.846Z,87.2
2018-12-23T04:27:47.824Z,87.39
2018-12-23T04:28:47.808Z,87.2
2018-12-23T04:29:47.797Z,87.39
2018-12-23T04:30:47.781Z,87.01
2018-12-23T04:31:47.772Z,86.82
2018-12-23T04:32:47.760Z,87.01
2018-12-23T04:33:47.741Z,87.24
2018-12-23T04:34:47.729Z,87.05
2018-12-23T04:35:47.728Z,86.77
2018-12-23T04:36:47.703Z,87.05
2018-12-23T04:37:47.689Z,86.96
2018-12-23T04:38:47.678Z,87.05
2018-12-23T04:39:47.668Z,87.05
2018-12-23T04:40:47.901Z,86.96
2018-12-23T04:41:47.642Z,86.87
2018-12-23T04:42:47.623Z,86.87
2018-12-23T04:43:47.617Z,86.58
2018-12-23T04:44:47.600Z,86.58
2018-12-23T04:45:47.589Z,86.96
2018-12-23T04:46:47.572Z,87.24
2018-12-23T04:47:47.561Z,87.34
2018-12-23T04:48:47.545Z,86.68
2018-12-23T04:49:47.535Z,86.68
2018-12-23T04:50:47.519Z,86.58
2018-12-23T04:51:47.505Z,86.49
2018-12-23T04:52:47.494Z,86.68
2018-12-23T04:53:47.480Z,86.39
2018-12-23T04:54:47.472Z,86.39
2018-12-23T04:55:47.466Z,86.39
2018-12-23T04:56:47.447Z,86.3
2018-12-23T04:57:47.428Z,86.68
2018-12-23T04:58:47.416Z,86.3
2018-12-23T04:59:47.406Z,86.3
2018-12-23T05:00:47.390Z,86.68
2018-12-23T05:01:47.377Z,86.58
2018-12-23T05:02:47.365Z,86.58
2018-12-23T05:03:47.369Z,86.58
2018-12-23T05:04:47.338Z,86.77
2018-12-23T05:05:47.324Z,86.53
2018-12-23T05:06:47.315Z,86.2
2018-12-23T05:07:47.310Z,86.39
2018-12-23T05:08:47.298Z,86.39
2018-12-23T05:09:47.276Z,86.43
2018-12-23T05:10:47.262Z,86.53
2018-12-23T05:11:47.338Z,86.49
2018-12-23T05:12:47.257Z,86.43
2018-12-23T05:13:47.226Z,86.43
2018-12-23T05:14:47.300Z,86.72
2018-12-23T05:15:47.200Z,86.53
2018-12-23T05:16:47.189Z,86.53
2018-12-23T05:17:47.174Z,86.53
2018-12-23T05:18:47.161Z,86.34
2018-12-23T05:19:47.149Z,86.53
2018-12-23T05:20:47.137Z,86.63
2018-12-23T05:21:47.121Z,86.72
2018-12-23T05:22:47.112Z,86.63
2018-12-23T05:23:47.098Z,86.34
2018-12-23T05:24:47.092Z,86.34
2018-12-23T05:25:47.073Z,86.34
2018-12-23T05:26:47.058Z,86.72
2018-12-23T05:27:47.044Z,86.63
2018-12-23T05:28:47.050Z,86.34
2018-12-23T05:29:47.021Z,86.34
2018-12-23T05:30:47.008Z,86.43
2018-12-23T05:31:46.996Z,86.24
2018-12-23T05:32:46.986Z,86.34
2018-12-23T05:33:46.970Z,86.24
2018-12-23T05:34:46.962Z,86.63
2018-12-23T05:35:46.949Z,86.24
2018-12-23T05:36:54.910Z,86.63
2018-12-23T05:37:47.053Z,86.43
2018-12-23T05:38:46.906Z,86.43
2018-12-23T05:39:46.895Z,86.53
2018-12-23T05:40:46.882Z,85.96
2018-12-23T05:41:46.873Z,86.05
2018-12-23T05:42:46.883Z,86.05
2018-12-23T05:43:46.846Z,86.34
2018-12-23T05:44:46.835Z,86.15
2018-12-23T05:45:46.819Z,86.05
2018-12-23T05:46:46.807Z,86.34
2018-12-23T05:47:46.795Z,86.24
2018-12-23T05:48:46.905Z,86.05
2018-12-23T05:49:46.770Z,86.15
2018-12-23T05:50:46.757Z,86.15
2018-12-23T05:51:46.745Z,86.05
2018-12-23T05:52:46.731Z,86.05
2018-12-23T05:53:46.720Z,86.15
2018-12-23T05:54:46.706Z,86.15
2018-12-23T05:55:46.695Z,86.05
2018-12-23T05:56:46.681Z,86.24
2018-12-23T05:57:46.671Z,86.05
2018-12-23T05:58:46.658Z,86.34
2018-12-23T05:59:46.651Z,86.24
2018-12-23T06:00:46.633Z,86.24
2018-12-23T06:01:46.622Z,86.15
2018-12-23T06:02:46.606Z,86.34
2018-12-23T06:03:46.595Z,86.24
2018-12-23T06:04:46.584Z,86.05
2018-12-23T06:05:46.570Z,85.96
2018-12-23T06:06:46.557Z,86.24
2018-12-23T06:07:46.550Z,86.15
2018-12-23T06:08:46.533Z,86.15
2018-12-23T06:09:46.518Z,86.05
2018-12-23T06:10:46.508Z,86.63
2018-12-23T06:11:46.501Z,86.34
2018-12-23T06:12:46.485Z,86.43
2018-12-23T06:13:46.471Z,86.15
2018-12-23T06:14:46.467Z,86.34
2018-12-23T06:15:46.446Z,86.24
2018-12-23T06:16:46.432Z,86.24
2018-12-23T06:17:46.419Z,86.63
2018-12-23T06:18:46.410Z,86.53
2018-12-23T06:19:46.396Z,86.24
2018-12-23T06:20:46.383Z,86
2018-12-23T06:21:46.372Z,86.43
2018-12-23T06:22:46.358Z,85.86
2018-12-23T06:23:46.347Z,86.63
2018-12-23T06:24:46.334Z,86.34
2018-12-23T06:25:46.344Z,85.96
2018-12-23T06:26:46.310Z,86.24
2018-12-23T06:27:46.305Z,85.91
2018-12-23T06:28:47.767Z,86.05
2018-12-23T06:29:46.276Z,86.43
2018-12-23T06:30:46.263Z,86.53
2018-12-23T06:31:46.250Z,86.19
2018-12-23T06:32:46.240Z,86.53
2018-12-23T06:33:46.232Z,85.68
2018-12-23T06:34:46.231Z,85.77
2018-12-23T06:35:46.200Z,85.68
2018-12-23T06:36:46.190Z,85.77
2018-12-23T06:37:46.177Z,85.86
2018-12-23T06:38:46.164Z,85.81
2018-12-23T06:39:46.161Z,85.81
2018-12-23T06:40:46.142Z,85.91
2018-12-23T06:41:46.125Z,86
2018-12-23T06:42:46.116Z,85.72
2018-12-23T06:43:46.100Z,86
2018-12-23T06:44:46.139Z,86
2018-12-23T06:45:46.328Z,86
2018-12-23T06:46:46.067Z,86.1
2018-12-23T06:47:46.056Z,85.81
2018-12-23T06:48:46.048Z,85.81
2018-12-23T06:49:45.792Z,85.72
2018-12-23T06:50:46.018Z,85.72
2018-12-23T06:51:46.008Z,85.72
2018-12-23T06:52:45.997Z,86
2018-12-23T06:53:45.982Z,86
2018-12-23T06:54:45.969Z,86
2018-12-23T06:55:45.957Z,86
2018-12-23T06:56:46.001Z,85.72
2018-12-23T06:57:45.935Z,86.47
2018-12-23T06:58:45.922Z,85.91
2018-12-23T06:59:45.911Z,86.1
2018-12-23T07:00:45.896Z,86.29
2018-12-23T07:01:45.887Z,86.38
2018-12-23T07:02:45.874Z,86.34
2018-12-23T07:03:45.864Z,86.76
2018-12-23T07:04:45.852Z,86.29
2018-12-23T07:05:45.838Z,85.96
2018-12-23T07:06:45.827Z,86.82
2018-12-23T07:07:45.813Z,86.63
2018-12-23T07:08:45.800Z,86.82
2018-12-23T07:09:45.788Z,86.53
2018-12-23T07:10:45.784Z,86.05
2018-12-23T07:11:45.764Z,86.63
2018-12-23T07:12:45.754Z,86.63
2018-12-23T07:13:45.741Z,86.72
2018-12-23T07:14:45.728Z,86.63
2018-12-23T07:15:45.761Z,86.43
2018-12-23T07:16:45.955Z,86.63
2018-12-23T07:17:45.731Z,86.91
2018-12-23T07:18:45.679Z,86.43
2018-12-23T07:19:45.671Z,86.53
2018-12-23T07:20:45.656Z,86.43
2018-12-23T07:21:45.643Z,87.19
2018-12-23T07:22:45.631Z,87.29
2018-12-23T07:23:45.617Z,87.29
2018-12-23T07:24:45.609Z,87.01
2018-12-23T07:25:45.594Z,87.29
2018-12-23T07:26:46.153Z,87.48
2018-12-23T07:27:45.569Z,87.29
2018-12-23T07:28:45.559Z,87.67
2018-12-23T07:29:45.547Z,86.82
2018-12-23T07:30:45.538Z,86.91
2018-12-23T07:31:45.536Z,87.1
2018-12-23T07:32:45.509Z,87.1
2018-12-23T07:33:45.500Z,87.48
2018-12-23T07:34:45.486Z,87.19
2018-12-23T07:35:45.471Z,87.19
2018-12-23T07:36:52.096Z,86.91
2018-12-23T07:37:45.449Z,87.29
2018-12-23T07:38:45.435Z,86.53
2018-12-23T07:39:45.421Z,86.43
2018-12-23T07:40:45.415Z,86.82
2018-12-23T07:41:45.403Z,86.43
2018-12-23T07:42:45.386Z,86.63
2018-12-23T07:43:45.375Z,86.43
2018-12-23T07:44:45.361Z,86.72
2018-12-23T07:45:45.350Z,87.19
2018-12-23T07:46:45.335Z,86.72
2018-12-23T07:47:45.339Z,86.72
2018-12-23T07:48:45.391Z,86.91
2018-12-23T07:49:45.300Z,86.63
2018-12-23T07:50:45.295Z,86.05
2018-12-23T07:51:45.275Z,86.34
2018-12-23T07:52:45.262Z,86.24
2018-12-23T07:53:45.253Z,85.96
2018-12-23T07:54:45.240Z,86.24
2018-12-23T07:55:45.227Z,86.24
2018-12-23T07:56:45.212Z,85.68
2018-12-23T07:57:45.201Z,85.77
2018-12-23T07:58:45.185Z,85.96
2018-12-23T07:59:45.174Z,86.05
2018-12-23T08:00:45.161Z,85.96
2018-12-23T08:01:45.151Z,86.15
2018-12-23T08:02:45.137Z,86.05
2018-12-23T08:03:45.127Z,86.19
2018-12-23T08:04:45.119Z,86.1
2018-12-23T08:05:45.101Z,86.19
2018-12-23T08:06:45.091Z,85.72
2018-12-23T08:07:45.077Z,85.72
2018-12-23T08:08:45.064Z,86
2018-12-23T08:09:45.054Z,85.91
2018-12-23T08:10:45.040Z,85.53
2018-12-23T08:11:45.029Z,85.62
2018-12-23T08:12:45.016Z,85.91
2018-12-23T08:13:45.007Z,85.34
2018-12-23T08:14:44.994Z,85.53
2018-12-23T08:15:44.979Z,85.43
2018-12-23T08:16:44.969Z,85.53
2018-12-23T08:17:44.958Z,85.43
2018-12-23T08:18:44.947Z,85.53
2018-12-23T08:19:44.934Z,85.57
2018-12-23T08:20:44.925Z,85.57
2018-12-23T08:21:44.910Z,85.76
2018-12-23T08:22:44.909Z,84.91
2018-12-23T08:23:44.888Z,85.19
2018-12-23T08:24:44.877Z,85.19
2018-12-23T08:25:44.867Z,84.91
2018-12-23T08:26:44.856Z,85
2018-12-23T08:27:44.840Z,85
2018-12-23T08:28:44.830Z,84.81
2018-12-23T08:29:44.819Z,84.81
2018-12-23T08:30:44.810Z,84.72
2018-12-23T08:31:44.792Z,84.72
2018-12-23T08:32:44.785Z,85
2018-12-23T08:33:44.772Z,84.91
2018-12-23T08:34:44.762Z,85
2018-12-23T08:35:44.752Z,84.91
2018-12-23T08:36:44.739Z,85.28
2018-12-23T08:37:47.306Z,85.1
2018-12-23T08:38:44.715Z,85.47
2018-12-23T08:39:44.705Z,85.38
2018-12-23T08:40:44.698Z,85.14
2018-12-23T08:41:44.686Z,85.38
2018-12-23T08:42:44.671Z,85.33
2018-12-23T08:43:44.661Z,85.24
2018-12-23T08:44:44.648Z,84.47
2018-12-23T08:45:44.637Z,85.24
2018-12-23T08:46:44.627Z,84.47
2018-12-23T08:47:44.618Z,84.66
2018-12-23T08:48:44.603Z,85.33
2018-12-23T08:49:44.593Z,84.66
2018-12-23T08:50:44.586Z,84.66
2018-12-23T08:51:45.863Z,84.76
2018-12-23T08:52:44.560Z,84.85
2018-12-23T08:53:44.549Z,84.95
2018-12-23T08:54:44.538Z,84.66
2018-12-23T08:55:44.528Z,84.85
2018-12-23T08:56:44.523Z,84.76
2018-12-23T08:57:44.510Z,84.76
2018-12-23T08:58:44.496Z,84.66
2018-12-23T08:59:44.485Z,84.66
2018-12-23T09:00:44.476Z,84.76
2018-12-23T09:01:44.460Z,84.66
2018-12-23T09:02:44.456Z,84.56
2018-12-23T09:03:44.441Z,84.28
2018-12-23T09:04:44.433Z,84.76
2018-12-23T09:05:44.424Z,84.56
2018-12-23T09:06:44.409Z,84.56
2018-12-23T09:07:52.800Z,84.52
2018-12-23T09:08:44.392Z,84.52
2018-12-23T09:09:44.379Z,84.42
2018-12-23T09:10:44.368Z,84.33
2018-12-23T09:11:45.400Z,84.8
2018-12-23T09:12:44.345Z,84.61
2018-12-23T09:13:44.435Z,84.89
2018-12-23T09:14:44.333Z,84.8
2018-12-23T09:15:44.315Z,84.52
2018-12-23T09:16:44.303Z,84.7
2018-12-23T09:17:44.296Z,84.89
2018-12-23T09:18:44.282Z,84.7
2018-12-23T09:19:44.278Z,84.42
2018-12-23T09:20:44.348Z,84.61
2018-12-23T09:21:44.503Z,84.52
2018-12-23T09:22:44.242Z,84.61
2018-12-23T09:23:44.231Z,84.8
2018-12-23T09:24:44.220Z,84.61
2018-12-23T09:25:44.216Z,84.89
2018-12-23T09:26:44.497Z,84.7
2018-12-23T09:27:44.188Z,84.33
2018-12-23T09:28:44.179Z,84.61
2018-12-23T09:29:44.169Z,84.61
2018-12-23T09:30:44.157Z,84.99
2018-12-23T09:31:44.148Z,84.7
2018-12-23T09:32:44.135Z,84.52
2018-12-23T09:33:44.123Z,84.61
2018-12-23T09:34:44.118Z,84.7
2018-12-23T09:35:44.109Z,84.61
2018-12-23T09:36:44.094Z,84.42
2018-12-23T09:37:44.082Z,84.42
2018-12-23T09:38:44.072Z,84.42
2018-12-23T09:39:44.062Z,84.61
2018-12-23T09:40:44.052Z,84.33
2018-12-23T09:41:44.044Z,84.42
2018-12-23T09:42:44.030Z,84.52
2018-12-23T09:43:44.021Z,84.36
2018-12-23T09:44:44.011Z,83.7
2018-12-23T09:45:43.999Z,83.56
2018-12-23T09:46:43.992Z,83.41
2018-12-23T09:47:43.979Z,83.41
2018-12-23T09:48:45.344Z,83.61
2018-12-23T09:49:43.959Z,83.32
2018-12-23T09:50:43.953Z,83.8
2018-12-23T09:51:43.938Z,83.61
2018-12-23T09:52:43.927Z,83.8
2018-12-23T09:53:43.925Z,83.8
2018-12-23T09:54:43.909Z,83.7
2018-12-23T09:55:43.717Z,83.7
2018-12-23T09:56:43.891Z,83.61
2018-12-23T09:57:43.879Z,83.93
2018-12-23T09:58:43.870Z,83.55
2018-12-23T09:59:43.862Z,83.45
2018-12-23T10:00:43.852Z,83.36
2018-12-23T10:01:43.841Z,83.45
2018-12-23T10:02:43.848Z,83.17
2018-12-23T10:03:43.826Z,83.26
2018-12-23T10:04:43.814Z,83.55
2018-12-23T10:05:43.805Z,83.5
2018-12-23T10:06:43.796Z,83.5
2018-12-23T10:07:43.787Z,83.12
2018-12-23T10:08:43.779Z,82.92
2018-12-23T10:09:43.767Z,83.02
2018-12-23T10:10:43.759Z,83.02
2018-12-23T10:11:43.751Z,83.4
2018-12-23T10:12:43.742Z,83.4
2018-12-23T10:13:43.731Z,83.59
2018-12-23T10:14:43.723Z,83.78
2018-12-23T10:15:43.716Z,83.88
2018-12-23T10:16:43.712Z,84.64
2018-12-23T10:17:43.697Z,84.83
2018-12-23T10:18:43.689Z,84.83
2018-12-23T10:19:43.679Z,86.16
2018-12-23T10:20:43.668Z,86.6
2018-12-23T10:21:43.658Z,87.46
2018-12-23T10:22:43.651Z,86.98
2018-12-23T10:23:43.642Z,86.88
2018-12-23T10:24:43.634Z,85.93
2018-12-23T10:25:43.627Z,85.55
2018-12-23T10:26:43.618Z,86.88
2018-12-23T10:27:43.612Z,86.22
2018-12-23T10:28:43.598Z,86.12
2018-12-23T10:29:43.594Z,86.6
2018-12-23T10:30:43.582Z,85.64
2018-12-23T10:31:43.570Z,85.46
2018-12-23T10:32:43.567Z,84.88
2018-12-23T10:33:43.553Z,85.74
2018-12-23T10:34:43.546Z,85.84
2018-12-23T10:35:43.533Z,85.17
2018-12-23T10:36:43.526Z,85.36
2018-12-23T10:37:43.519Z,84.88
2018-12-23T10:38:43.507Z,84.5
2018-12-23T10:39:43.498Z,84.41
2018-12-23T10:40:43.494Z,84.41
2018-12-23T10:41:43.482Z,83.69
2018-12-23T10:42:43.471Z,85.64
2018-12-23T10:43:43.464Z,86.36
2018-12-23T10:44:43.461Z,85.74
2018-12-23T10:45:43.447Z,85.74
2018-12-23T10:46:43.438Z,85.74
2018-12-23T10:47:43.434Z,85.55
2018-12-23T10:48:43.418Z,86.79
2018-12-23T10:49:43.408Z,86.51
2018-12-23T10:50:43.401Z,86.6
2018-12-23T10:51:43.397Z,86.12
2018-12-23T10:52:43.383Z,85.08
2018-12-23T10:53:43.371Z,84.69
2018-12-23T10:54:43.365Z,84.79
2018-12-23T10:55:43.355Z,84.31
2018-12-23T10:56:43.346Z,84.41
2018-12-23T10:57:43.338Z,83.84
2018-12-23T10:58:43.435Z,83.45
2018-12-23T10:59:43.318Z,83.45
2018-12-23T11:00:43.311Z,84.83
2018-12-23T11:01:43.298Z,85.02
2018-12-23T11:02:43.289Z,84.74
2018-12-23T11:03:43.286Z,85.97
2018-12-23T11:04:43.271Z,86.32
2018-12-23T11:05:43.261Z,86.45
2018-12-23T11:06:43.258Z,85.93
2018-12-23T11:07:43.246Z,85.27
2018-12-23T11:08:43.236Z,84.5
2018-12-23T11:09:43.228Z,84.64
2018-12-23T11:10:43.219Z,83.97
2018-12-23T11:11:43.207Z,83.69
2018-12-23T11:12:43.203Z,83.78
2018-12-23T11:13:43.284Z,84.26
2018-12-23T11:14:43.186Z,84.74
2018-12-23T11:15:43.178Z,83.78
2018-12-23T11:16:43.186Z,86.16
2018-12-23T11:17:43.245Z,85.88
2018-12-23T11:18:43.146Z,85.5
2018-12-23T11:19:43.138Z,84.92
2018-12-23T11:20:43.131Z,83.88
2018-12-23T11:21:43.119Z,84.92
2018-12-23T11:22:43.108Z,84.92
2018-12-23T11:23:43.101Z,84.45
2018-12-23T11:24:43.092Z,86.26
2018-12-23T11:25:43.084Z,86.26
2018-12-23T11:26:43.169Z,86.16
2018-12-23T11:27:43.062Z,86.16
2018-12-23T11:28:43.057Z,85.97
2018-12-23T11:29:43.046Z,85.69
2018-12-23T11:30:43.038Z,86.45
2018-12-23T11:31:43.040Z,87.31
2018-12-23T11:32:43.019Z,87.5
2018-12-23T11:33:43.014Z,86.65
2018-12-23T11:34:43.000Z,87.31
2018-12-23T11:35:42.993Z,87.21
2018-12-23T11:36:42.985Z,88.55
2018-12-23T11:37:42.975Z,87.31
2018-12-23T11:38:42.966Z,87.31
2018-12-23T11:39:42.961Z,86.83
2018-12-23T11:40:42.948Z,86.55
2018-12-23T11:41:42.941Z,86.07
2018-12-23T11:42:42.932Z,86.45
2018-12-23T11:43:42.921Z,86.07
2018-12-23T11:44:42.912Z,87.02
2018-12-23T11:45:42.904Z,87.4
2018-12-23T11:46:42.895Z,88.03
2018-12-23T11:47:42.884Z,87.84
2018-12-23T11:48:42.875Z,87.55
2018-12-23T11:49:42.866Z,87.07
2018-12-23T11:50:42.857Z,86.79
2018-12-23T11:51:42.850Z,86.6
2018-12-23T11:52:42.837Z,86.32
2018-12-23T11:53:42.831Z,86.12
2018-12-23T11:54:42.822Z,86.79
2018-12-23T11:55:42.811Z,86.51
2018-12-23T11:56:42.802Z,86.22
2018-12-23T11:57:42.792Z,85.93
2018-12-23T11:58:42.782Z,84.69
2018-12-23T11:59:42.531Z,84.98
2018-12-23T12:00:42.767Z,84.79
2018-12-23T12:01:42.760Z,84.45
2018-12-23T12:02:42.749Z,84.36
2018-12-23T12:03:42.738Z,84.83
2018-12-23T12:04:42.730Z,87.79
2018-12-23T12:05:42.725Z,87.02
2018-12-23T12:06:42.711Z,86.41
2018-12-23T12:07:42.801Z,85.69
2018-12-23T12:08:46.313Z,85.69
2018-12-23T12:09:42.684Z,86.45
2018-12-23T12:10:42.675Z,86.12
2018-12-23T12:11:42.666Z,87.17
2018-12-23T12:12:42.656Z,87.07
2018-12-23T12:13:42.696Z,86.32
2018-12-23T12:14:42.641Z,86.22
2018-12-23T12:15:42.631Z,86.12
2018-12-23T12:16:42.620Z,86.12
2018-12-23T12:17:42.619Z,85.36
2018-12-23T12:18:42.602Z,85.12
2018-12-23T12:19:42.598Z,84.36
2018-12-23T12:20:42.590Z,84.16
2018-12-23T12:21:42.576Z,84.92
2018-12-23T12:22:43.727Z,85.88
2018-12-23T12:23:42.556Z,86.26
2018-12-23T12:24:42.547Z,86.26
2018-12-23T12:25:42.539Z,87.02
2018-12-23T12:26:42.532Z,86.93
2018-12-23T12:27:42.519Z,86.36
2018-12-23T12:28:42.509Z,86.55
2018-12-23T12:29:42.505Z,86.74
2018-12-23T12:30:42.496Z,86.22
2018-12-23T12:31:42.483Z,86.41
2018-12-23T12:32:42.474Z,85.93
2018-12-23T12:33:42.464Z,86.32
2018-12-23T12:34:42.455Z,86.69
2018-12-23T12:35:42.447Z,87.07
2018-12-23T12:36:42.445Z,86.79
2018-12-23T12:37:42.430Z,86.98
2018-12-23T12:38:42.423Z,87.27
2018-12-23T12:39:42.412Z,87.27
2018-12-23T12:40:42.407Z,87.17
2018-12-23T12:41:42.448Z,87.65
2018-12-23T12:42:42.386Z,87.46
2018-12-23T12:43:42.372Z,87.55
2018-12-23T12:44:42.362Z,88.03
2018-12-23T12:45:42.355Z,87.93
2018-12-23T12:46:42.348Z,88.46
2018-12-23T12:47:42.334Z,87.79
2018-12-23T12:48:42.329Z,87.6
2018-12-23T12:49:43.159Z,87.51
2018-12-23T12:50:42.305Z,87.23
2018-12-23T12:51:42.296Z,87.89
2018-12-23T12:52:42.286Z,87.23
2018-12-23T12:53:42.277Z,87.41
2018-12-23T12:54:42.268Z,87.51
2018-12-23T12:55:42.260Z,87.32
2018-12-23T12:56:42.247Z,87.51